createdAt,value
2024-03-10T00:01:32.166Z,27.55
2024-03-10T00:03:59.523Z,26.98
2024-03-10T00:06:26.129Z,28.15
2024-03-10T00:08:54.384Z,27.67
2024-03-10T00:11:21.419Z,29.20
2024-03-10T00:13:50.025Z,29.08
2024-03-10T00:16:17.464Z,30.10
2024-03-10T00:18:44.150Z,30.13
2024-03-10T00:21:10.774Z,29.30
2024-03-10T00:23:38.478Z,29.17
2024-03-10T00:26:06.924Z,31.83
2024-03-10T00:28:37.315Z,29.10
2024-03-10T00:31:04.760Z,29.17
2024-03-10T00:33:31.505Z,27.80
2024-03-10T00:35:58.724Z,28.88
2024-03-10T00:38:25.591Z,29.60
2024-03-10T00:40:52.324Z,27.15
2024-03-10T00:43:19.040Z,29.45
2024-03-10T00:45:45.682Z,27.13
2024-03-10T00:48:12.903Z,32.97
2024-03-10T00:50:41.198Z,31.10
2024-03-10T00:53:07.932Z,28.20
2024-03-10T00:55:34.616Z,30.55
2024-03-10T00:58:01.332Z,31.48
2024-03-10T01:00:29.721Z,31.30
2024-03-10T01:02:56.615Z,30.77
2024-03-10T01:05:24.091Z,31.42
2024-03-10T01:07:51.316Z,31.30
2024-03-10T01:10:18.081Z,31.02
2024-03-10T01:12:44.695Z,32.45
2024-03-10T01:15:11.385Z,30.85
2024-03-10T01:17:38.174Z,28.77
2024-03-10T01:20:05.542Z,28.90
2024-03-10T01:22:32.562Z,29.83
2024-03-10T01:24:59.394Z,28.38
2024-03-10T01:27:26.023Z,30.10
2024-03-10T01:29:52.604Z,27.77
2024-03-10T01:32:19.339Z,29.20
2024-03-10T01:34:46.173Z,28.92
2024-03-10T01:37:12.853Z,31.38
2024-03-10T01:39:39.442Z,30.00
2024-03-10T01:42:06.376Z,29.35
2024-03-10T01:44:33.489Z,32.05
2024-03-10T01:47:01.876Z,30.30
2024-03-10T01:49:29.144Z,31.85
2024-03-10T01:51:57.776Z,31.33
2024-03-10T01:54:32.330Z,35.83
2024-03-10T01:56:59.537Z,29.92
2024-03-10T01:59:27.974Z,28.88
2024-03-10T02:01:55.400Z,30.65
2024-03-10T02:04:23.068Z,31.92
2024-03-10T02:06:51.260Z,32.27
2024-03-10T02:09:19.810Z,31.43
2024-03-10T02:11:46.606Z,34.55
2024-03-10T02:14:13.410Z,29.20
2024-03-10T02:16:40.069Z,29.23
2024-03-10T02:19:07.565Z,31.13
2024-03-10T02:21:34.488Z,32.50
2024-03-10T02:24:17.517Z,30.75
2024-03-10T02:26:47.496Z,31.45
2024-03-10T02:29:22.629Z,32.28
2024-03-10T02:32:09.175Z,31.02
2024-03-10T02:34:56.313Z,29.13
2024-03-10T02:37:42.580Z,31.95
2024-03-10T02:40:29.116Z,30.33
2024-03-10T02:43:14.533Z,29.42
2024-03-10T02:45:59.796Z,30.85
2024-03-10T02:48:26.468Z,29.48
2024-03-10T02:50:53.115Z,31.00
2024-03-10T02:53:19.767Z,30.85
2024-03-10T02:55:46.738Z,31.90
2024-03-10T02:58:13.685Z,32.75
2024-03-10T03:00:40.360Z,32.10
2024-03-10T03:03:09.338Z,29.35
2024-03-10T03:05:37.575Z,31.92
2024-03-10T03:08:05.004Z,31.27
2024-03-10T03:10:31.738Z,30.08
2024-03-10T03:12:58.462Z,32.72
2024-03-10T03:15:25.088Z,29.45
2024-03-10T03:17:51.790Z,30.10
2024-03-10T03:20:18.762Z,31.10
2024-03-10T03:22:47.693Z,28.17
2024-03-10T03:25:14.857Z,29.20
2024-03-10T03:27:42.369Z,30.05
2024-03-10T03:30:09.241Z,32.43
2024-03-10T03:32:36.088Z,30.20
2024-03-10T03:35:03.738Z,32.42
2024-03-10T03:37:31.714Z,28.80
2024-03-10T03:39:59.034Z,28.92
2024-03-10T03:42:25.753Z,27.65
2024-03-10T03:44:52.403Z,29.00
2024-03-10T03:47:19.160Z,28.85
2024-03-10T03:49:46.611Z,27.75
2024-03-10T03:52:13.517Z,29.98
2024-03-10T03:54:43.753Z,33.05
2024-03-10T03:57:10.431Z,30.40
2024-03-10T03:59:40.206Z,32.28
2024-03-10T04:02:08.193Z,29.35
2024-03-10T04:04:34.950Z,30.55
2024-03-10T04:07:01.930Z,28.80
2024-03-10T04:09:28.628Z,30.42
2024-03-10T04:11:55.309Z,30.38
2024-03-10T04:14:21.978Z,30.10
2024-03-10T04:16:55.786Z,28.58
2024-03-10T04:19:22.518Z,30.35
2024-03-10T04:21:49.562Z,29.83
2024-03-10T04:24:16.993Z,28.92
2024-03-10T04:26:44.571Z,29.13
2024-03-10T04:29:12.764Z,30.52
2024-03-10T04:31:40.056Z,29.13
2024-03-10T04:34:07.184Z,30.60
2024-03-10T04:36:34.621Z,30.60
2024-03-10T04:39:01.646Z,31.53
2024-03-10T04:41:29.518Z,30.20
2024-03-10T04:43:56.319Z,29.27
2024-03-10T04:46:23.138Z,29.27
2024-03-10T04:48:51.641Z,30.40
2024-03-10T04:51:18.246Z,29.02
2024-03-10T04:53:45.126Z,32.25
2024-03-10T04:56:13.606Z,28.88
2024-03-10T04:58:42.441Z,30.60
2024-03-10T05:01:10.802Z,28.65
2024-03-10T05:03:40.741Z,27.48
2024-03-10T05:06:08.156Z,29.23
2024-03-10T05:08:34.981Z,28.15
2024-03-10T05:11:01.924Z,27.58
2024-03-10T05:13:28.603Z,29.10
2024-03-10T05:15:55.206Z,30.13
2024-03-10T05:18:21.840Z,26.50
2024-03-10T05:20:48.495Z,28.20
2024-03-10T05:23:15.207Z,27.73
2024-03-10T05:25:41.916Z,28.25
2024-03-10T05:28:10.549Z,28.45
2024-03-10T05:30:37.897Z,28.17
2024-03-10T05:33:07.042Z,27.52
2024-03-10T05:35:34.939Z,30.52
2024-03-10T05:38:01.810Z,29.10
2024-03-10T05:40:28.471Z,28.77
2024-03-10T05:42:55.140Z,27.27
2024-03-10T05:45:21.805Z,26.15
2024-03-10T05:47:51.388Z,28.00
2024-03-10T05:50:18.358Z,29.23
2024-03-10T05:52:45.701Z,27.58
2024-03-10T05:55:12.397Z,30.20
2024-03-10T05:57:42.342Z,28.23
2024-03-10T06:00:15.142Z,30.17
2024-03-10T06:02:46.135Z,29.60
2024-03-10T06:05:14.530Z,30.10
2024-03-10T06:07:45.080Z,30.23
2024-03-10T06:10:12.703Z,26.88
2024-03-10T06:12:43.560Z,27.25
2024-03-10T06:15:12.128Z,28.05
2024-03-10T06:17:42.013Z,30.95
2024-03-10T06:20:28.087Z,28.30
2024-03-10T06:23:13.526Z,28.83
2024-03-10T06:25:40.234Z,28.52
2024-03-10T06:28:06.988Z,26.80
2024-03-10T06:30:34.405Z,29.85
2024-03-10T06:33:01.306Z,28.92
2024-03-10T06:35:28.360Z,29.73
2024-03-10T06:37:55.436Z,29.43
2024-03-10T06:40:22.815Z,30.45
2024-03-10T06:42:49.925Z,29.33
2024-03-10T06:45:16.592Z,28.33
2024-03-10T06:47:43.465Z,28.30
2024-03-10T06:50:11.069Z,29.17
2024-03-10T06:52:38.972Z,29.30
2024-03-10T06:55:10.642Z,30.45
2024-03-10T06:57:39.694Z,28.03
2024-03-10T07:00:09.717Z,27.08
2024-03-10T07:02:37.091Z,28.05
2024-03-10T07:05:05.204Z,29.95
2024-03-10T07:07:31.961Z,31.10
2024-03-10T07:09:58.678Z,29.70
2024-03-10T07:12:25.364Z,27.80
2024-03-10T07:14:51.954Z,30.23
2024-03-10T07:17:18.664Z,29.63
2024-03-10T07:19:46.405Z,29.30
2024-03-10T07:22:13.320Z,29.25
2024-03-10T07:24:40.050Z,28.42
2024-03-10T07:27:06.841Z,31.42
2024-03-10T07:29:34.419Z,28.77
2024-03-10T07:32:01.414Z,27.95
2024-03-10T07:34:29.716Z,28.00
2024-03-10T07:36:56.438Z,31.05
2024-03-10T07:39:23.994Z,29.17
2024-03-10T07:41:50.749Z,29.70
2024-03-10T07:44:17.469Z,29.40
2024-03-10T07:46:44.846Z,30.95
2024-03-10T07:49:12.474Z,30.20
2024-03-10T07:51:39.251Z,31.30
2024-03-10T07:54:06.066Z,30.40
2024-03-10T07:56:33.499Z,30.25
2024-03-10T07:59:00.615Z,28.27
2024-03-10T08:01:27.494Z,28.70
2024-03-10T08:03:57.916Z,30.58
2024-03-10T08:06:26.721Z,27.77
2024-03-10T08:08:53.511Z,30.77
2024-03-10T08:11:23.108Z,28.25
2024-03-10T08:13:50.482Z,27.27
2024-03-10T08:16:17.344Z,28.70
2024-03-10T08:18:45.634Z,31.67
2024-03-10T08:21:13.472Z,29.17
2024-03-10T08:23:41.879Z,29.13
2024-03-10T08:26:10.988Z,27.27
2024-03-10T08:28:38.146Z,27.53
2024-03-10T08:31:05.781Z,28.63
2024-03-10T08:33:34.131Z,26.63
2024-03-10T08:36:02.160Z,28.77
2024-03-10T08:38:29.006Z,27.10
2024-03-10T08:40:55.897Z,27.98
2024-03-10T08:43:25.262Z,27.52
2024-03-10T08:45:52.509Z,28.42
2024-03-10T08:48:19.369Z,26.48
2024-03-10T08:50:46.432Z,28.00
2024-03-10T08:53:14.386Z,29.38
2024-03-10T08:55:41.957Z,27.85
2024-03-10T08:58:09.103Z,27.42
2024-03-10T09:00:35.809Z,26.50
2024-03-10T09:03:02.608Z,26.85
2024-03-10T09:05:29.282Z,28.70
2024-03-10T09:07:56.692Z,29.20
2024-03-10T09:10:24.734Z,27.27
2024-03-10T09:12:52.831Z,29.90
2024-03-10T09:15:20.125Z,28.73
2024-03-10T09:17:47.564Z,28.02
2024-03-10T09:20:15.593Z,29.47
2024-03-10T09:22:43.437Z,28.10
2024-03-10T09:25:21.426Z,28.70
2024-03-10T09:27:52.844Z,29.02
2024-03-10T09:30:23.961Z,29.88
2024-03-10T09:32:52.110Z,27.87
2024-03-10T09:35:22.322Z,29.63
2024-03-10T09:37:49.693Z,28.92
2024-03-10T09:40:17.431Z,32.70
2024-03-10T09:42:44.628Z,32.50
2024-03-10T09:45:22.317Z,31.25
2024-03-10T09:47:50.878Z,27.40
2024-03-10T09:50:23.827Z,27.35
2024-03-10T09:52:55.536Z,28.90
2024-03-10T09:55:22.760Z,29.20
2024-03-10T09:57:52.067Z,28.87
2024-03-10T10:00:19.168Z,30.55
2024-03-10T10:02:46.451Z,29.17
2024-03-10T10:05:25.895Z,31.58
2024-03-10T10:07:56.638Z,29.48
2024-03-10T10:10:23.304Z,29.33
2024-03-10T10:12:54.848Z,29.52
2024-03-10T10:15:27.435Z,30.95
2024-03-10T10:17:58.450Z,30.15
2024-03-10T10:20:26.757Z,31.10
2024-03-10T10:22:54.536Z,31.70
2024-03-10T10:25:23.129Z,31.10
2024-03-10T10:27:51.537Z,28.80
2024-03-10T10:30:23.629Z,30.58
2024-03-10T10:33:01.367Z,30.70
2024-03-10T10:35:29.174Z,31.17
2024-03-10T10:37:55.846Z,28.98
2024-03-10T10:40:23.832Z,29.33
2024-03-10T10:42:57.135Z,29.50
2024-03-10T10:45:31.604Z,27.77
2024-03-10T10:47:58.366Z,27.60
2024-03-10T10:50:32.838Z,29.08
2024-03-10T10:53:01.042Z,28.20
2024-03-10T10:55:31.825Z,28.25
2024-03-10T10:58:00.379Z,27.50
2024-03-10T11:00:28.552Z,28.40
2024-03-10T11:03:17.833Z,27.83
2024-03-10T11:06:07.131Z,28.88
2024-03-10T11:08:38.180Z,27.90
2024-03-10T11:11:06.260Z,27.60
2024-03-10T11:13:34.507Z,28.15
2024-03-10T11:16:11.142Z,28.92
2024-03-10T11:18:39.257Z,30.77
2024-03-10T11:21:15.272Z,28.58
2024-03-10T11:23:45.661Z,28.35
2024-03-10T11:26:17.073Z,27.60
2024-03-10T11:28:55.587Z,28.20
2024-03-10T11:31:27.097Z,29.90
2024-03-10T11:33:56.573Z,26.45
2024-03-10T11:36:24.562Z,28.33
2024-03-10T11:38:52.943Z,28.43
2024-03-10T11:41:21.895Z,30.98
2024-03-10T11:43:50.126Z,27.20
2024-03-10T11:46:26.127Z,28.77
2024-03-10T11:48:54.084Z,29.23
2024-03-10T11:51:21.703Z,27.40
2024-03-10T11:53:48.749Z,27.45
2024-03-10T11:56:15.633Z,28.70
2024-03-10T11:58:43.081Z,29.20
2024-03-10T12:01:12.392Z,29.40
2024-03-10T12:03:41.332Z,28.65
2024-03-10T12:06:10.456Z,28.52
2024-03-10T12:08:38.597Z,29.50
2024-03-10T12:11:06.604Z,32.72
2024-03-10T12:13:33.748Z,32.08
2024-03-10T12:16:02.539Z,32.13
2024-03-10T12:18:32.261Z,32.35
2024-03-10T12:20:58.945Z,30.77
2024-03-10T12:23:25.588Z,31.27
2024-03-10T12:25:55.611Z,34.30
2024-03-10T12:28:23.526Z,30.73
2024-03-10T12:30:50.346Z,31.37
2024-03-10T12:33:17.150Z,28.63
2024-03-10T12:35:43.906Z,30.75
2024-03-10T12:38:10.591Z,30.05
2024-03-10T12:40:37.369Z,28.83
2024-03-10T12:43:04.162Z,30.73
2024-03-10T12:45:31.451Z,30.23
2024-03-10T12:47:58.672Z,31.67
2024-03-10T12:50:25.619Z,31.10
2024-03-10T12:52:52.474Z,29.67
2024-03-10T12:55:19.665Z,32.08
2024-03-10T12:57:46.340Z,30.33
2024-03-10T13:00:27.825Z,31.88
2024-03-10T13:02:57.010Z,28.97
2024-03-10T13:05:24.780Z,30.02
2024-03-10T13:07:51.763Z,28.58
2024-03-10T13:10:18.428Z,31.38
2024-03-10T13:12:45.079Z,30.45
2024-03-10T13:15:11.923Z,31.05
2024-03-10T13:17:42.041Z,28.97
2024-03-10T13:20:12.651Z,29.90
2024-03-10T13:22:39.696Z,29.23
2024-03-10T13:25:07.134Z,27.13
2024-03-10T13:27:36.125Z,27.00
2024-03-10T13:30:06.600Z,29.02
2024-03-10T13:32:37.525Z,28.58
2024-03-10T13:35:04.971Z,29.95
2024-03-10T13:37:35.029Z,29.48
2024-03-10T13:40:06.090Z,27.70
2024-03-10T13:42:33.324Z,29.58
2024-03-10T13:44:59.963Z,26.50
2024-03-10T13:47:26.635Z,27.50
2024-03-10T13:49:53.354Z,26.80
2024-03-10T13:52:20.959Z,28.27
2024-03-10T13:54:51.382Z,29.63
2024-03-10T13:57:21.474Z,30.20
2024-03-10T13:59:50.015Z,30.73
2024-03-10T14:02:16.777Z,30.40
2024-03-10T14:04:43.467Z,28.67
2024-03-10T14:07:10.318Z,28.25
2024-03-10T14:09:36.992Z,30.55
2024-03-10T14:12:07.201Z,30.43
2024-03-10T14:14:35.298Z,33.00
2024-03-10T14:17:04.855Z,29.43
2024-03-10T14:19:32.320Z,30.15
2024-03-10T14:21:58.945Z,30.40
2024-03-10T14:24:26.174Z,30.48
2024-03-10T14:26:57.548Z,32.05
2024-03-10T14:29:25.974Z,31.42
2024-03-10T14:31:53.771Z,31.02
2024-03-10T14:34:20.442Z,32.88
2024-03-10T14:36:47.074Z,31.30
2024-03-10T14:39:14.796Z,33.83
2024-03-10T14:41:41.586Z,31.37
2024-03-10T14:44:11.272Z,34.05
2024-03-10T14:46:38.537Z,36.33
2024-03-10T14:49:05.714Z,31.58
2024-03-10T14:51:36.907Z,34.53
2024-03-10T14:54:04.281Z,35.38
2024-03-10T14:56:31.002Z,33.17
2024-03-10T14:58:57.776Z,31.60
2024-03-10T15:01:28.881Z,32.92
2024-03-10T15:03:58.014Z,33.13
2024-03-10T15:06:26.528Z,33.75
2024-03-10T15:08:54.936Z,34.55
2024-03-10T15:11:21.707Z,34.92
2024-03-10T15:13:48.803Z,34.63
2024-03-10T15:16:16.371Z,36.20
2024-03-10T15:18:43.391Z,35.75
2024-03-10T15:21:11.981Z,38.40
2024-03-10T15:23:39.018Z,42.38
2024-03-10T15:26:06.608Z,34.75
2024-03-10T15:28:33.499Z,35.33
2024-03-10T15:31:00.621Z,34.17
2024-03-10T15:33:27.412Z,37.47
2024-03-10T15:35:54.992Z,37.08
2024-03-10T15:38:22.327Z,33.20
2024-03-10T15:40:50.482Z,37.03
2024-03-10T15:43:17.253Z,35.53
2024-03-10T15:45:47.808Z,37.10
2024-03-10T15:48:14.450Z,35.20
2024-03-10T15:50:41.538Z,35.72
2024-03-10T15:53:10.944Z,35.47
2024-03-10T15:55:37.785Z,36.92
2024-03-10T15:58:04.533Z,37.17
2024-03-10T16:00:31.556Z,39.05
2024-03-10T16:03:25.042Z,38.55
2024-03-10T16:05:55.133Z,40.83
2024-03-10T16:08:25.233Z,39.87
2024-03-10T16:10:52.591Z,55.90
2024-03-10T16:13:34.935Z,46.72
2024-03-10T16:16:02.668Z,42.28
2024-03-10T16:18:30.599Z,41.90
2024-03-10T16:21:03.186Z,42.67
2024-03-10T16:23:29.938Z,38.47
2024-03-10T16:25:56.631Z,41.88
2024-03-10T16:28:23.658Z,38.47
2024-03-10T16:30:52.668Z,45.70
2024-03-10T16:33:20.090Z,44.55
2024-03-10T16:35:46.792Z,42.85
2024-03-10T16:38:13.453Z,45.07
2024-03-10T16:40:40.204Z,39.17
2024-03-10T16:43:06.980Z,39.00
2024-03-10T16:45:33.915Z,38.20
2024-03-10T16:48:00.838Z,41.10
2024-03-10T16:50:28.164Z,41.70
2024-03-10T16:52:57.762Z,41.35
2024-03-10T16:55:25.340Z,37.67
2024-03-10T16:57:54.477Z,37.53
2024-03-10T17:00:21.263Z,37.33
2024-03-10T17:02:48.457Z,35.58
2024-03-10T17:05:16.132Z,37.70
2024-03-10T17:07:43.242Z,38.03
2024-03-10T17:10:11.346Z,38.80
2024-03-10T17:12:40.005Z,37.58
2024-03-10T17:15:09.853Z,39.58
2024-03-10T17:17:39.449Z,39.67
2024-03-10T17:20:07.287Z,35.67
2024-03-10T17:22:38.357Z,40.20
2024-03-10T17:25:06.116Z,39.58
2024-03-10T17:27:33.099Z,40.70
2024-03-10T17:29:59.787Z,40.70
2024-03-10T17:32:29.939Z,36.70
2024-03-10T17:34:56.587Z,39.15
2024-03-10T17:37:23.297Z,40.73
2024-03-10T17:39:55.268Z,44.30
2024-03-10T17:42:22.627Z,36.27
2024-03-10T17:44:49.174Z,39.97
2024-03-10T17:47:15.933Z,37.95
2024-03-10T17:49:44.417Z,38.40
2024-03-10T17:52:11.692Z,37.03
2024-03-10T17:54:38.591Z,38.20
2024-03-10T17:57:05.548Z,38.22
2024-03-10T17:59:32.329Z,38.70
2024-03-10T18:01:59.268Z,39.35
2024-03-10T18:04:26.079Z,42.27
2024-03-10T18:06:52.699Z,39.25
2024-03-10T18:09:20.905Z,37.60
2024-03-10T18:11:49.849Z,39.85
2024-03-10T18:14:17.977Z,38.75
2024-03-10T18:16:45.001Z,40.90
2024-03-10T18:19:12.697Z,40.17
2024-03-10T18:21:40.931Z,41.70
2024-03-10T18:24:10.299Z,40.13
2024-03-10T18:26:43.936Z,40.60
2024-03-10T18:29:13.753Z,40.78
2024-03-10T18:31:42.102Z,41.25
2024-03-10T18:34:11.179Z,44.42
2024-03-10T18:36:38.535Z,41.75
2024-03-10T18:39:06.880Z,42.17
2024-03-10T18:41:34.412Z,37.72
2024-03-10T18:44:03.109Z,39.47
2024-03-10T18:46:31.695Z,40.95
2024-03-10T18:48:58.341Z,41.80
2024-03-10T18:51:25.040Z,41.72
2024-03-10T18:53:52.741Z,41.53
2024-03-10T18:56:20.746Z,41.90
2024-03-10T18:58:47.421Z,39.40
2024-03-10T19:01:17.456Z,39.17
2024-03-10T19:03:48.093Z,47.47
2024-03-10T19:06:17.116Z,42.47
2024-03-10T19:08:45.290Z,41.45
2024-03-10T19:11:12.531Z,42.23
2024-03-10T19:13:40.773Z,42.73
2024-03-10T19:16:09.892Z,42.97
2024-03-10T19:18:36.678Z,41.45
2024-03-10T19:21:04.121Z,42.40
2024-03-10T19:23:31.283Z,45.08
2024-03-10T19:26:00.393Z,44.65
2024-03-10T19:28:27.506Z,44.27
2024-03-10T19:30:55.889Z,42.13
2024-03-10T19:33:23.314Z,41.97
2024-03-10T19:35:50.404Z,43.30
2024-03-10T19:38:17.572Z,45.05
2024-03-10T19:40:44.614Z,43.55
2024-03-10T19:43:13.712Z,43.88
2024-03-10T19:45:42.221Z,43.33
2024-03-10T19:48:09.466Z,44.97
2024-03-10T19:50:36.406Z,45.20
2024-03-10T19:53:03.176Z,42.80
2024-03-10T19:55:29.798Z,46.50
2024-03-10T19:57:57.579Z,44.50
2024-03-10T20:00:24.700Z,46.15
2024-03-10T20:02:51.404Z,45.45
2024-03-10T20:05:18.568Z,45.00
2024-03-10T20:07:52.313Z,44.07
2024-03-10T20:10:21.305Z,49.45
2024-03-10T20:12:50.463Z,45.03
2024-03-10T20:15:17.709Z,47.83
2024-03-10T20:17:49.121Z,43.00
2024-03-10T20:20:22.695Z,46.27
2024-03-10T20:22:50.645Z,43.08
2024-03-10T20:25:19.452Z,44.08
2024-03-10T20:27:46.824Z,45.75
2024-03-10T20:30:15.305Z,47.65
2024-03-10T20:32:42.149Z,47.58
2024-03-10T20:35:09.374Z,46.97
2024-03-10T20:37:36.520Z,46.05
2024-03-10T20:40:04.123Z,44.45
2024-03-10T20:42:31.102Z,45.88
2024-03-10T20:44:57.724Z,43.78
2024-03-10T20:47:24.452Z,46.40
2024-03-10T20:49:51.503Z,44.50
2024-03-10T20:52:18.320Z,47.15
2024-03-10T20:54:45.182Z,45.20
2024-03-10T20:57:11.774Z,44.95
2024-03-10T20:59:39.690Z,47.08
2024-03-10T21:02:08.497Z,45.03
2024-03-10T21:04:35.693Z,49.75
2024-03-10T21:07:02.750Z,50.40
2024-03-10T21:09:29.667Z,45.85
2024-03-10T21:11:57.673Z,45.97
2024-03-10T21:14:26.752Z,46.85
2024-03-10T21:16:57.330Z,46.92
2024-03-10T21:19:25.762Z,45.47
2024-03-10T21:21:52.476Z,47.63
2024-03-10T21:24:19.070Z,45.03
2024-03-10T21:26:45.740Z,46.30
2024-03-10T21:29:13.124Z,48.53
2024-03-10T21:31:40.679Z,46.22
2024-03-10T21:34:10.504Z,44.83
2024-03-10T21:36:37.408Z,44.70
2024-03-10T21:39:04.253Z,48.63
2024-03-10T21:41:31.035Z,49.53
2024-03-10T21:43:57.859Z,50.90
2024-03-10T21:46:24.859Z,55.25
2024-03-10T21:48:52.759Z,51.70
2024-03-10T21:51:20.698Z,52.00
2024-03-10T21:53:48.092Z,47.10
2024-03-10T21:56:16.229Z,49.63
2024-03-10T21:58:42.825Z,43.10
2024-03-10T22:01:09.519Z,45.30
2024-03-10T22:03:36.891Z,43.85
2024-03-10T22:06:03.813Z,44.58
2024-03-10T22:08:30.518Z,44.93
2024-03-10T22:10:57.199Z,44.42
2024-03-10T22:13:23.835Z,47.80
2024-03-10T22:15:50.624Z,46.00
2024-03-10T22:18:17.511Z,45.92
2024-03-10T22:20:44.741Z,47.38
2024-03-10T22:23:12.909Z,44.53
2024-03-10T22:25:39.818Z,43.70
2024-03-10T22:28:06.596Z,44.67
2024-03-10T22:30:33.396Z,46.38
2024-03-10T22:33:00.337Z,45.97
2024-03-10T22:35:27.562Z,43.23
2024-03-10T22:37:56.421Z,43.15
2024-03-10T22:40:24.234Z,42.50
2024-03-10T22:42:53.071Z,42.65
2024-03-10T22:45:29.584Z,42.88
2024-03-10T22:47:59.466Z,43.28
2024-03-10T22:50:26.979Z,43.65
2024-03-10T22:52:53.865Z,41.38
2024-03-10T22:55:20.650Z,43.22
2024-03-10T22:57:47.928Z,43.88
2024-03-10T23:00:24.507Z,41.67
2024-03-10T23:02:55.579Z,42.45
2024-03-10T23:05:27.117Z,43.10
2024-03-10T23:08:01.170Z,43.13
2024-03-10T23:10:29.429Z,42.80
2024-03-10T23:12:57.670Z,42.03
2024-03-10T23:15:24.759Z,40.72
2024-03-10T23:17:51.778Z,43.17
2024-03-10T23:20:24.894Z,44.72
2024-03-10T23:22:57.383Z,43.08
2024-03-10T23:25:25.689Z,44.00
2024-03-10T23:27:53.615Z,43.50
2024-03-10T23:30:21.209Z,45.25
2024-03-10T23:32:50.161Z,42.60
2024-03-10T23:35:18.022Z,44.72
2024-03-10T23:37:44.802Z,43.43
2024-03-10T23:40:12.545Z,42.67
2024-03-10T23:42:43.789Z,42.80
2024-03-10T23:45:13.588Z,42.15
2024-03-10T23:47:41.671Z,44.63
2024-03-10T23:50:10.409Z,43.65
2024-03-10T23:52:40.006Z,41.60
2024-03-10T23:55:07.837Z,44.65
2024-03-10T23:57:34.716Z,43.63
